createdAt,value
2016-11-20T00:00:47.178Z,98.82
2016-11-20T00:01:55.871Z,98.34
2016-11-20T00:03:04.881Z,97.77
2016-11-20T00:04:13.573Z,98.06
2016-11-20T00:05:22.264Z,98.53
2016-11-20T00:06:30.994Z,99.19
2016-11-20T00:07:39.692Z,98.06
2016-11-20T00:08:48.385Z,97.3
2016-11-20T00:09:57.077Z,97.58
2016-11-20T00:11:05.772Z,97.11
2016-11-20T00:12:14.460Z,97.58
2016-11-20T00:13:23.149Z,97.77
2016-11-20T00:14:31.842Z,97.2
2016-11-20T00:15:40.534Z,97.11
2016-11-20T00:16:49.230Z,97.11
2016-11-20T00:17:57.928Z,97.2
2016-11-20T00:19:06.620Z,97.2
2016-11-20T00:20:15.306Z,97.2
2016-11-20T00:21:24.001Z,97.58
2016-11-20T00:22:32.729Z,97.2
2016-11-20T00:23:41.419Z,96.64
2016-11-20T00:24:50.413Z,96.92
2016-11-20T00:25:58.795Z,96.92
2016-11-20T00:27:07.492Z,96.5
2016-11-20T00:28:16.191Z,95.74
2016-11-20T00:29:24.880Z,96.59
2016-11-20T00:30:33.571Z,96.35
2016-11-20T00:31:42.583Z,96.16
2016-11-20T00:32:51.285Z,96.35
2016-11-20T00:33:59.981Z,96.26
2016-11-20T00:35:08.678Z,96.26
2016-11-20T00:36:17.366Z,96.45
2016-11-20T00:37:26.053Z,96.45
2016-11-20T00:38:34.751Z,96.26
2016-11-20T00:39:43.439Z,96.45
2016-11-20T00:40:52.127Z,95.78
2016-11-20T00:42:00.815Z,95.31
2016-11-20T00:43:09.509Z,95.69
2016-11-20T00:44:18.201Z,96.54
2016-11-20T00:45:26.893Z,96.35
2016-11-20T00:46:35.581Z,96.45
2016-11-20T00:47:44.268Z,96.35
2016-11-20T00:48:52.963Z,96.54
2016-11-20T00:50:01.686Z,96.64
2016-11-20T00:51:10.373Z,97.3
2016-11-20T00:52:19.059Z,97.39
2016-11-20T00:53:27.747Z,97.87
2016-11-20T00:54:36.474Z,97.39
2016-11-20T00:55:45.168Z,97.96
2016-11-20T00:56:53.853Z,98.34
2016-11-20T00:58:02.571Z,97.11
2016-11-20T00:59:11.262Z,96.54
2016-11-20T01:00:19.954Z,95.69
2016-11-20T01:01:28.670Z,95.21
2016-11-20T01:02:37.361Z,95.12
2016-11-20T01:03:46.054Z,96.16
2016-11-20T01:04:54.750Z,96.54
2016-11-20T01:06:03.441Z,96.83
2016-11-20T01:07:12.137Z,97.39
2016-11-20T01:08:20.851Z,97.11
2016-11-20T01:09:29.543Z,97.39
2016-11-20T01:10:38.235Z,98.29
2016-11-20T01:11:46.929Z,98.39
2016-11-20T01:12:55.618Z,98.86
2016-11-20T01:14:04.316Z,98.58
2016-11-20T01:15:13.008Z,99.15
2016-11-20T01:16:21.699Z,99.43
2016-11-20T01:17:30.392Z,99.33
2016-11-20T01:18:39.097Z,99.24
2016-11-20T01:19:47.788Z,98.86
2016-11-20T01:20:56.484Z,98.25
2016-11-20T01:22:05.176Z,98.06
2016-11-20T01:23:13.864Z,98.06
2016-11-20T01:24:22.583Z,98.06
2016-11-20T01:25:31.270Z,98.91
2016-11-20T01:26:39.956Z,98.82
2016-11-20T01:27:48.642Z,98.82
2016-11-20T01:28:57.331Z,98.72
2016-11-20T01:30:06.034Z,98.91
2016-11-20T01:31:14.725Z,98.25
2016-11-20T01:32:23.411Z,98.53
2016-11-20T01:33:32.102Z,98.44
2016-11-20T01:34:40.789Z,98.15
2016-11-20T01:35:49.478Z,98.44
2016-11-20T01:36:58.168Z,98.25
2016-11-20T01:38:06.859Z,98.44
2016-11-20T01:39:15.551Z,98.25
2016-11-20T01:40:24.239Z,97.96
2016-11-20T01:41:32.976Z,98.06
2016-11-20T01:42:41.668Z,97.77
2016-11-20T01:43:50.363Z,98.34
2016-11-20T01:44:59.055Z,98.44
2016-11-20T01:46:07.742Z,98.25
2016-11-20T01:47:16.433Z,98.34
2016-11-20T01:48:25.126Z,98.44
2016-11-20T01:49:33.819Z,98.44
2016-11-20T01:50:42.510Z,98.53
2016-11-20T01:51:51.198Z,98.53
2016-11-20T01:52:59.888Z,99.01
2016-11-20T01:54:08.578Z,99.19
2016-11-20T01:55:17.264Z,99.1
2016-11-20T01:56:25.950Z,99.19
2016-11-20T01:57:34.646Z,99.38
2016-11-20T01:58:43.334Z,99.48
2016-11-20T01:59:52.022Z,99.57
2016-11-20T02:01:00.716Z,99.38
2016-11-20T02:02:09.404Z,99.38
2016-11-20T02:03:18.099Z,99.66
2016-11-20T02:04:26.792Z,98.91
2016-11-20T02:05:35.480Z,99.48
2016-11-20T02:06:44.168Z,99.99
2016-11-20T02:07:52.863Z,99.19
2016-11-20T02:09:01.558Z,99.99
2016-11-20T02:10:10.246Z,99.99
2016-11-20T02:11:19.255Z,99.99
2016-11-20T02:12:27.950Z,99.99
2016-11-20T02:13:36.644Z,99.99
2016-11-20T02:14:45.337Z,99.99
2016-11-20T02:15:54.027Z,99.99
2016-11-20T02:17:02.719Z,99.99
2016-11-20T02:18:11.748Z,99.99
2016-11-20T02:19:20.473Z,99.99
2016-11-20T02:20:29.159Z,99.99
2016-11-20T02:21:37.849Z,99.99
2016-11-20T02:22:46.542Z,99.99
2016-11-20T02:23:55.224Z,99.99
2016-11-20T02:25:03.922Z,99.99
2016-11-20T02:26:12.641Z,99.85
2016-11-20T02:27:21.335Z,99.85
2016-11-20T02:28:30.030Z,99.99
2016-11-20T02:29:38.752Z,99.85
2016-11-20T02:30:47.442Z,99.99
2016-11-20T02:31:56.131Z,99.66
2016-11-20T02:33:04.822Z,99.99
2016-11-20T02:34:13.509Z,99.99
2016-11-20T02:35:22.202Z,99.99
2016-11-20T02:36:30.899Z,99.01
2016-11-20T02:37:39.586Z,99.99
2016-11-20T02:38:48.274Z,99.66
2016-11-20T02:39:56.966Z,99.99
2016-11-20T02:41:05.657Z,99.99
2016-11-20T02:42:14.351Z,99.99
2016-11-20T02:43:23.044Z,99.99
2016-11-20T02:44:31.730Z,99.99
2016-11-20T02:45:40.424Z,99.99
2016-11-20T02:46:49.111Z,99.48
2016-11-20T02:47:57.802Z,99.48
2016-11-20T02:49:06.491Z,99.76
2016-11-20T02:50:15.187Z,99.48
2016-11-20T02:51:23.878Z,99.01
2016-11-20T02:52:32.575Z,99.38
2016-11-20T02:53:41.268Z,99.57
2016-11-20T02:54:49.959Z,99.38
2016-11-20T02:55:58.647Z,98.91
2016-11-20T02:57:07.346Z,99.76
2016-11-20T02:58:16.039Z,99.95
2016-11-20T02:59:24.732Z,99.1
2016-11-20T03:00:33.428Z,99.66
2016-11-20T03:01:42.121Z,99.19
2016-11-20T03:02:50.812Z,98.82
2016-11-20T03:03:59.499Z,98.82
2016-11-20T03:05:08.194Z,99.01
2016-11-20T03:06:17.035Z,98.82
2016-11-20T03:07:25.789Z,98.91
2016-11-20T03:08:34.484Z,98.63
2016-11-20T03:09:43.178Z,98.25
2016-11-20T03:10:51.874Z,97.77
2016-11-20T03:12:00.611Z,98.63
2016-11-20T03:13:09.301Z,98.63
2016-11-20T03:14:17.999Z,98.15
2016-11-20T03:15:26.689Z,98.25
2016-11-20T03:16:35.383Z,99.01
2016-11-20T03:17:44.423Z,98.91
2016-11-20T03:18:53.144Z,99.76
2016-11-20T03:20:01.831Z,99.66
2016-11-20T03:21:10.524Z,99.38
2016-11-20T03:22:19.264Z,99.57
2016-11-20T03:23:27.960Z,99.99
2016-11-20T03:24:36.654Z,99.66
2016-11-20T03:25:45.347Z,99.99
2016-11-20T03:26:54.041Z,99.99
2016-11-20T03:28:02.735Z,99.95
2016-11-20T03:29:11.423Z,99.95
2016-11-20T03:30:20.109Z,99.99
2016-11-20T03:31:28.801Z,99.57
2016-11-20T03:32:37.493Z,99.52
2016-11-20T03:33:46.184Z,99.15
2016-11-20T03:34:54.954Z,99.19
2016-11-20T03:36:03.651Z,99.01
2016-11-20T03:37:12.347Z,99.1
2016-11-20T03:38:21.039Z,99.38
2016-11-20T03:39:30.070Z,99.66
2016-11-20T03:40:38.763Z,99.57
2016-11-20T03:41:47.460Z,99.76
2016-11-20T03:42:56.153Z,99.38
2016-11-20T03:44:04.843Z,99.85
2016-11-20T03:45:13.536Z,99.38
2016-11-20T03:46:22.261Z,99.57
2016-11-20T03:47:30.955Z,99.99
2016-11-20T03:48:39.648Z,99.48
2016-11-20T03:49:48.345Z,99.99
2016-11-20T03:50:57.037Z,99.99
2016-11-20T03:52:05.734Z,99.95
2016-11-20T03:53:14.428Z,99.99
2016-11-20T03:54:23.120Z,99.48
2016-11-20T03:55:31.811Z,99.57
2016-11-20T03:56:40.504Z,99.38
2016-11-20T03:57:49.189Z,98.91
2016-11-20T03:58:57.896Z,98.91
2016-11-20T04:00:06.591Z,98.25
2016-11-20T04:01:15.306Z,98.25
2016-11-20T04:02:23.993Z,98.82
2016-11-20T04:03:32.720Z,98.34
2016-11-20T04:04:41.413Z,98.06
2016-11-20T04:05:50.101Z,98.15
2016-11-20T04:06:58.801Z,98.25
2016-11-20T04:08:07.496Z,98.91
2016-11-20T04:09:16.211Z,98.91
2016-11-20T04:10:24.901Z,98.82
2016-11-20T04:11:33.596Z,99.48
2016-11-20T04:12:42.293Z,99.66
2016-11-20T04:13:50.982Z,99.33
2016-11-20T04:14:59.673Z,99.33
2016-11-20T04:16:08.368Z,99.43
2016-11-20T04:17:17.062Z,99.62
2016-11-20T04:18:26.083Z,99.52
2016-11-20T04:19:34.778Z,99.62
2016-11-20T04:20:43.474Z,99.15
2016-11-20T04:21:52.162Z,99.62
2016-11-20T04:23:00.849Z,99.99
2016-11-20T04:24:09.542Z,99.99
2016-11-20T04:25:18.234Z,99.99
2016-11-20T04:26:26.925Z,99.99
2016-11-20T04:27:35.618Z,99.99
2016-11-20T04:28:44.312Z,99.99
2016-11-20T04:29:53.319Z,99.99
2016-11-20T04:31:02.011Z,99.99
2016-11-20T04:32:10.699Z,99.99
2016-11-20T04:33:19.386Z,99.99
2016-11-20T04:34:28.074Z,99.99
2016-11-20T04:35:36.757Z,99.99
2016-11-20T04:36:45.446Z,99.99
2016-11-20T04:37:54.131Z,99.99
2016-11-20T04:39:02.819Z,99.99
2016-11-20T04:40:11.511Z,99.99
2016-11-20T04:41:20.200Z,99.99
2016-11-20T04:42:28.885Z,99.99
2016-11-20T04:43:37.583Z,99.99
2016-11-20T04:44:46.301Z,99.99
2016-11-20T04:45:54.991Z,99.99
2016-11-20T04:47:03.708Z,99.99
2016-11-20T04:48:12.405Z,99.99
2016-11-20T04:49:21.095Z,99.99
2016-11-20T04:50:29.784Z,99.99
2016-11-20T04:51:38.470Z,99.99
2016-11-20T04:52:47.156Z,99.99
2016-11-20T04:53:55.844Z,99.99
2016-11-20T04:55:04.581Z,99.99
2016-11-20T04:56:13.270Z,99.99
2016-11-20T04:57:21.965Z,99.99
2016-11-20T04:58:30.686Z,99.99
2016-11-20T04:59:39.376Z,99.28
2016-11-20T05:00:48.065Z,99.66
2016-11-20T05:01:56.754Z,99.99
2016-11-20T05:03:05.458Z,99.99
2016-11-20T05:04:14.148Z,99.99
2016-11-20T05:05:22.839Z,99.99
2016-11-20T05:06:31.525Z,99.99
2016-11-20T05:07:40.214Z,99.99
2016-11-20T05:08:48.908Z,99.99
2016-11-20T05:09:57.610Z,99.99
2016-11-20T05:11:06.311Z,99.99
2016-11-20T05:12:15.008Z,99.99
2016-11-20T05:13:23.694Z,98.9
2016-11-20T05:14:32.385Z,98.71
2016-11-20T05:15:41.112Z,97.96
2016-11-20T05:16:49.795Z,97.58
2016-11-20T05:17:58.485Z,97.39
2016-11-20T05:19:07.173Z,97.39
2016-11-20T05:20:15.864Z,97.39
2016-11-20T05:21:24.551Z,97.2
2016-11-20T05:22:33.250Z,96.54
2016-11-20T05:23:41.939Z,96.64
2016-11-20T05:24:50.629Z,96.16
2016-11-20T05:25:59.318Z,95.5
2016-11-20T05:27:08.010Z,95.31
2016-11-20T05:28:16.696Z,95.03
2016-11-20T05:29:25.384Z,95.21
2016-11-20T05:30:34.070Z,94.27
2016-11-20T05:31:42.758Z,94.93
2016-11-20T05:32:51.448Z,94.37
2016-11-20T05:34:00.134Z,93.7
2016-11-20T05:35:08.825Z,93.89
2016-11-20T05:36:17.519Z,92.66
2016-11-20T05:37:26.248Z,92.85
2016-11-20T05:38:34.977Z,92.85
2016-11-20T05:39:43.662Z,92.52
2016-11-20T05:40:52.347Z,92.8
2016-11-20T05:42:01.032Z,92.24
2016-11-20T05:43:09.720Z,91.77
2016-11-20T05:44:18.726Z,91.39
2016-11-20T05:45:27.724Z,91.96
2016-11-20T05:46:36.415Z,91.29
2016-11-20T05:47:45.103Z,90.72
2016-11-20T05:48:53.787Z,90.91
2016-11-20T05:50:02.467Z,90.82
2016-11-20T05:51:11.157Z,91.39
2016-11-20T05:52:19.847Z,91.29
2016-11-20T05:53:28.533Z,91.29
2016-11-20T05:54:37.233Z,91.01
2016-11-20T05:55:45.916Z,91.39
2016-11-20T05:56:54.611Z,91.01
2016-11-20T05:58:03.298Z,90.34
2016-11-20T05:59:11.980Z,90.34
2016-11-20T06:00:20.667Z,90.25
2016-11-20T06:01:29.370Z,89.97
2016-11-20T06:02:38.064Z,89.69
2016-11-20T06:03:46.756Z,88.74
2016-11-20T06:04:55.443Z,89.21
2016-11-20T06:06:04.130Z,89.02
2016-11-20T06:07:12.817Z,89.69
2016-11-20T06:08:21.506Z,89.5
2016-11-20T06:09:30.199Z,88.93
2016-11-20T06:10:38.887Z,89.4
2016-11-20T06:11:47.577Z,90.16
2016-11-20T06:12:56.262Z,90.82
2016-11-20T06:14:04.991Z,91.58
2016-11-20T06:15:13.678Z,92.24
2016-11-20T06:16:22.365Z,91.77
2016-11-20T06:17:31.050Z,91.96
2016-11-20T06:18:40.061Z,91.24
2016-11-20T06:19:48.749Z,92.1
2016-11-20T06:20:57.436Z,92.19
2016-11-20T06:22:06.126Z,91.72
2016-11-20T06:23:14.822Z,92.38
2016-11-20T06:24:23.511Z,92.47
2016-11-20T06:25:32.198Z,92.1
2016-11-20T06:26:40.883Z,92.1
2016-11-20T06:27:49.568Z,92.1
2016-11-20T06:28:58.254Z,92.1
2016-11-20T06:30:06.945Z,92.38
2016-11-20T06:31:15.636Z,92.29
2016-11-20T06:32:24.320Z,92.29
2016-11-20T06:33:33.049Z,91.34
2016-11-20T06:34:41.737Z,91.91
2016-11-20T06:35:50.427Z,92.1
2016-11-20T06:36:59.111Z,92.19
2016-11-20T06:38:07.796Z,92.57
2016-11-20T06:39:16.483Z,92.66
2016-11-20T06:40:25.173Z,92.85
2016-11-20T06:41:34.182Z,92.94
2016-11-20T06:42:42.872Z,92.66
2016-11-20T06:43:51.558Z,93.32
2016-11-20T06:45:00.583Z,93.42
2016-11-20T06:46:09.273Z,93.04
2016-11-20T06:47:17.962Z,93.61
2016-11-20T06:48:26.653Z,93.61
2016-11-20T06:49:35.398Z,93.89
2016-11-20T06:50:44.096Z,93.7
2016-11-20T06:51:52.785Z,93.42
2016-11-20T06:53:01.470Z,93.99
2016-11-20T06:54:10.164Z,94.08
2016-11-20T06:55:18.851Z,93.99
2016-11-20T06:56:27.538Z,93.7
2016-11-20T06:57:36.228Z,94.74
2016-11-20T06:58:44.918Z,94.65
2016-11-20T06:59:53.602Z,94.27
2016-11-20T07:01:02.286Z,94.18
2016-11-20T07:02:10.974Z,94.84
2016-11-20T07:03:19.659Z,95.21
2016-11-20T07:04:28.347Z,95.21
2016-11-20T07:05:37.035Z,94.84
2016-11-20T07:06:45.851Z,95.4
2016-11-20T07:07:54.539Z,95.03
2016-11-20T07:09:03.255Z,94.84
2016-11-20T07:10:11.942Z,95.21
2016-11-20T07:11:20.655Z,95.73
2016-11-20T07:12:29.345Z,95.64
2016-11-20T07:13:38.025Z,95.92
2016-11-20T07:14:46.713Z,95.54
2016-11-20T07:15:55.406Z,95.73
2016-11-20T07:17:04.097Z,95.92
2016-11-20T07:18:12.785Z,96.11
2016-11-20T07:19:21.469Z,96.78
2016-11-20T07:20:30.157Z,96.3
2016-11-20T07:21:38.846Z,96.11
2016-11-20T07:22:47.531Z,96.59
2016-11-20T07:23:56.220Z,96.49
2016-11-20T07:25:04.917Z,96.49
2016-11-20T07:26:13.599Z,96.49
2016-11-20T07:27:22.287Z,97.15
2016-11-20T07:28:30.973Z,97.25
2016-11-20T07:29:39.663Z,97.15
2016-11-20T07:30:48.356Z,97.34
2016-11-20T07:31:57.048Z,96.87
2016-11-20T07:33:05.738Z,97.34
2016-11-20T07:34:14.428Z,97.44
2016-11-20T07:35:23.117Z,97.63
2016-11-20T07:36:31.805Z,96.78
2016-11-20T07:37:40.487Z,96.68
2016-11-20T07:38:49.177Z,96.49
2016-11-20T07:39:57.862Z,96.49
2016-11-20T07:41:06.553Z,96.68
2016-11-20T07:42:15.243Z,97.25
2016-11-20T07:43:23.937Z,96.59
2016-11-20T07:44:32.627Z,96.11
2016-11-20T07:45:41.316Z,95.73
2016-11-20T07:46:50.011Z,96.4
2016-11-20T07:47:58.704Z,96.21
2016-11-20T07:49:07.387Z,96.3
2016-11-20T07:50:16.067Z,95.64
2016-11-20T07:51:24.753Z,96.11
2016-11-20T07:52:33.443Z,96.21
2016-11-20T07:53:42.135Z,96.4
2016-11-20T07:54:50.817Z,96.11
2016-11-20T07:55:59.503Z,96.49
2016-11-20T07:57:08.196Z,96.59
2016-11-20T07:58:16.884Z,96.4
2016-11-20T07:59:25.573Z,96.59
2016-11-20T08:00:34.254Z,96.87
2016-11-20T08:01:42.943Z,97.15
2016-11-20T08:02:51.628Z,96.68
2016-11-20T08:04:00.315Z,96.21
2016-11-20T08:05:09.318Z,96.3
2016-11-20T08:06:18.332Z,95.73
2016-11-20T08:07:27.020Z,96.49
2016-11-20T08:08:35.710Z,95.64
2016-11-20T08:09:44.397Z,95.64
2016-11-20T08:10:53.081Z,96.11
2016-11-20T08:12:01.770Z,95.92
2016-11-20T08:13:10.456Z,95.54
2016-11-20T08:14:19.144Z,95.64
2016-11-20T08:15:27.830Z,94.98
2016-11-20T08:16:36.521Z,95.07
2016-11-20T08:17:45.204Z,95.07
2016-11-20T08:18:53.890Z,95.36
2016-11-20T08:20:02.586Z,94.98
2016-11-20T08:21:11.272Z,95.17
2016-11-20T08:22:19.961Z,95.36
2016-11-20T08:23:28.650Z,95.17
2016-11-20T08:24:37.341Z,95.07
2016-11-20T08:25:46.036Z,95.07
2016-11-20T08:26:54.723Z,95.36
2016-11-20T08:28:03.411Z,94.79
2016-11-20T08:29:12.097Z,94.6
2016-11-20T08:30:21.103Z,95.17
2016-11-20T08:31:29.795Z,94.98
2016-11-20T08:32:38.532Z,94.7
2016-11-20T08:33:47.242Z,94.98
2016-11-20T08:34:55.928Z,94.98
2016-11-20T08:36:04.616Z,94.7
2016-11-20T08:37:13.302Z,94.6
2016-11-20T08:38:22.317Z,94.22
2016-11-20T08:39:31.005Z,94.74
2016-11-20T08:40:39.691Z,94.56
2016-11-20T08:41:48.377Z,94.22
2016-11-20T08:42:57.067Z,94.65
2016-11-20T08:44:05.750Z,93.7
2016-11-20T08:45:14.443Z,93.75
2016-11-20T08:46:23.131Z,93.84
2016-11-20T08:47:31.822Z,93.94
2016-11-20T08:48:40.510Z,94.51
2016-11-20T08:49:49.200Z,94.79
2016-11-20T08:50:57.889Z,95.17
2016-11-20T08:52:06.575Z,94.41
2016-11-20T08:53:15.294Z,93.75
2016-11-20T08:54:23.979Z,94.7
2016-11-20T08:55:32.664Z,95.07
2016-11-20T08:56:41.355Z,95.26
2016-11-20T08:57:50.043Z,94.6
2016-11-20T08:58:58.724Z,94.51
2016-11-20T09:00:07.416Z,95.54
2016-11-20T09:01:16.103Z,95.92
2016-11-20T09:02:24.789Z,95.07
2016-11-20T09:03:33.477Z,95.64
2016-11-20T09:04:42.162Z,95.73
2016-11-20T09:05:50.910Z,95.36
2016-11-20T09:06:59.621Z,95.45
2016-11-20T09:08:08.306Z,95.07
2016-11-20T09:09:16.995Z,94.6
2016-11-20T09:10:25.682Z,94.32
2016-11-20T09:11:34.370Z,94.7
2016-11-20T09:12:43.056Z,93.75
2016-11-20T09:13:51.742Z,92.8
2016-11-20T09:15:00.432Z,93.84
2016-11-20T09:16:09.124Z,93.66
2016-11-20T09:17:17.820Z,92.9
2016-11-20T09:18:26.507Z,93.66
2016-11-20T09:19:35.195Z,94.22
2016-11-20T09:20:43.916Z,94.03
2016-11-20T09:21:52.606Z,92.71
2016-11-20T09:23:01.297Z,92.52
2016-11-20T09:24:09.986Z,92.9
2016-11-20T09:25:18.674Z,92.9
2016-11-20T09:26:27.366Z,92.99
2016-11-20T09:27:36.053Z,92.99
2016-11-20T09:28:44.736Z,93.28
2016-11-20T09:29:53.451Z,92.9
2016-11-20T09:31:02.140Z,93.09
2016-11-20T09:32:10.822Z,92.66
2016-11-20T09:33:19.510Z,92.47
2016-11-20T09:34:28.192Z,91.91
2016-11-20T09:35:36.916Z,91.43
2016-11-20T09:36:45.604Z,90.96
2016-11-20T09:37:54.296Z,91.62
2016-11-20T09:39:02.982Z,92.1
2016-11-20T09:40:11.670Z,92.1
2016-11-20T09:41:20.358Z,91.62
2016-11-20T09:42:29.045Z,91.81
2016-11-20T09:43:37.730Z,91.15
2016-11-20T09:44:46.416Z,91.15
2016-11-20T09:45:55.421Z,90.96
2016-11-20T09:47:04.109Z,90.86
2016-11-20T09:48:12.793Z,90.58
2016-11-20T09:49:21.480Z,91.05
2016-11-20T09:50:30.165Z,91.91
2016-11-20T09:51:38.850Z,91.91
2016-11-20T09:52:47.544Z,92.19
2016-11-20T09:53:56.228Z,91.34
2016-11-20T09:55:04.914Z,91.34
2016-11-20T09:56:13.601Z,91.62
2016-11-20T09:57:22.291Z,91.34
2016-11-20T09:58:30.979Z,91.43
2016-11-20T09:59:39.665Z,91.24
2016-11-20T10:00:48.358Z,91.81
2016-11-20T10:01:57.047Z,91.53
2016-11-20T10:03:05.732Z,91.48
2016-11-20T10:04:14.448Z,91.29
2016-11-20T10:05:23.167Z,90.72
2016-11-20T10:06:31.883Z,90.53
2016-11-20T10:07:40.569Z,90.63
2016-11-20T10:08:49.262Z,89.78
2016-11-20T10:09:57.950Z,89.4
2016-11-20T10:11:06.639Z,88.64
2016-11-20T10:12:15.330Z,88.55
2016-11-20T10:13:24.026Z,87.79
2016-11-20T10:14:32.715Z,87.79
2016-11-20T10:15:41.407Z,87.23
2016-11-20T10:16:50.100Z,87.65
2016-11-20T10:17:58.788Z,86.79
2016-11-20T10:19:07.502Z,87.08
2016-11-20T10:20:16.198Z,87.17
2016-11-20T10:21:24.886Z,87.08
2016-11-20T10:22:33.577Z,87.08
2016-11-20T10:23:42.272Z,87.08
2016-11-20T10:24:50.955Z,87.74
2016-11-20T10:25:59.646Z,87.27
2016-11-20T10:27:08.339Z,87.08
2016-11-20T10:28:17.024Z,86.18
2016-11-20T10:29:25.713Z,85.7
2016-11-20T10:30:34.413Z,84.47
2016-11-20T10:31:43.100Z,84
2016-11-20T10:32:51.787Z,83.18
2016-11-20T10:34:00.477Z,82.71
2016-11-20T10:35:09.164Z,82.9
2016-11-20T10:36:17.850Z,81.48
2016-11-20T10:37:26.540Z,81.57
2016-11-20T10:38:35.236Z,81.67
2016-11-20T10:39:43.928Z,81.67
2016-11-20T10:40:52.656Z,81.67
2016-11-20T10:42:01.347Z,82.24
2016-11-20T10:43:10.068Z,83.28
2016-11-20T10:44:18.809Z,83.37
2016-11-20T10:45:27.500Z,83.09
2016-11-20T10:46:36.504Z,83.33
2016-11-20T10:47:45.191Z,84.38
2016-11-20T10:48:53.882Z,84.75
2016-11-20T10:50:02.577Z,84.66
2016-11-20T10:51:11.266Z,84.66
2016-11-20T10:52:19.962Z,85.32
2016-11-20T10:53:28.651Z,84.38
2016-11-20T10:54:37.348Z,84.56
2016-11-20T10:55:46.037Z,85.04
2016-11-20T10:56:54.736Z,85.13
2016-11-20T10:58:03.428Z,85.32
2016-11-20T10:59:12.115Z,85.13
2016-11-20T11:00:20.806Z,84.66
2016-11-20T11:01:29.498Z,83.62
2016-11-20T11:02:38.188Z,83.81
2016-11-20T11:03:46.880Z,83.71
2016-11-20T11:04:55.574Z,84
2016-11-20T11:06:04.265Z,84.38
2016-11-20T11:07:12.959Z,84.28
2016-11-20T11:08:21.648Z,83.71
2016-11-20T11:09:30.341Z,83.81
2016-11-20T11:10:39.064Z,83.94
2016-11-20T11:11:47.760Z,84.09
2016-11-20T11:12:56.454Z,83.9
2016-11-20T11:14:05.142Z,84.66
2016-11-20T11:15:13.836Z,85.61
2016-11-20T11:16:22.531Z,85.51
2016-11-20T11:17:31.229Z,85.61
2016-11-20T11:18:39.924Z,84.85
2016-11-20T11:19:48.612Z,84.85
2016-11-20T11:20:57.298Z,85.7
2016-11-20T11:22:05.994Z,84.94
2016-11-20T11:23:14.718Z,86.08
2016-11-20T11:24:23.438Z,86.18
2016-11-20T11:25:32.128Z,86.36
2016-11-20T11:26:40.847Z,86.46
2016-11-20T11:27:49.538Z,86.74
2016-11-20T11:28:58.243Z,86.46
2016-11-20T11:30:06.937Z,86.08
2016-11-20T11:31:15.628Z,86.27
2016-11-20T11:32:24.329Z,86.18
2016-11-20T11:33:33.019Z,86.27
2016-11-20T11:34:41.708Z,86.08
2016-11-20T11:35:50.397Z,86.08
2016-11-20T11:36:59.093Z,85.61
2016-11-20T11:38:07.790Z,85.61
2016-11-20T11:39:16.482Z,84.75
2016-11-20T11:40:25.174Z,85.23
2016-11-20T11:41:33.865Z,85.99
2016-11-20T11:42:42.561Z,86.08
2016-11-20T11:43:51.269Z,85.99
2016-11-20T11:44:59.964Z,86.08
2016-11-20T11:46:08.656Z,85.42
2016-11-20T11:47:17.700Z,85.23
2016-11-20T11:48:26.400Z,85.42
2016-11-20T11:49:35.092Z,85.13
2016-11-20T11:50:43.790Z,85.61
2016-11-20T11:51:52.519Z,85.04
2016-11-20T11:53:01.211Z,85.51
2016-11-20T11:54:09.898Z,85.51
2016-11-20T11:55:18.587Z,85.13
2016-11-20T11:56:27.276Z,85.32
2016-11-20T11:57:35.970Z,85.89
2016-11-20T11:58:44.665Z,85.61
2016-11-20T11:59:53.381Z,85.8
2016-11-20T12:01:02.082Z,85.17
2016-11-20T12:02:10.786Z,84.13
2016-11-20T12:03:19.502Z,84.09
2016-11-20T12:04:28.194Z,84.66
2016-11-20T12:05:36.887Z,85.23
2016-11-20T12:06:45.578Z,85.27
2016-11-20T12:07:54.268Z,84.99
2016-11-20T12:09:02.964Z,84.61
2016-11-20T12:10:11.659Z,84.42
2016-11-20T12:11:20.348Z,84.04
2016-11-20T12:12:29.040Z,84.7
2016-11-20T12:13:37.735Z,84.61
2016-11-20T12:14:46.429Z,85.36
2016-11-20T12:15:55.132Z,85.36
2016-11-20T12:17:03.831Z,85.65
2016-11-20T12:18:12.525Z,85.93
2016-11-20T12:19:21.222Z,85.89
2016-11-20T12:20:29.910Z,86.03
2016-11-20T12:21:38.705Z,85.65
2016-11-20T12:22:47.398Z,85.08
2016-11-20T12:23:56.108Z,84.7
2016-11-20T12:25:04.802Z,84.32
2016-11-20T12:26:13.497Z,83.94
2016-11-20T12:27:22.190Z,84.23
2016-11-20T12:28:30.882Z,84.8
2016-11-20T12:29:39.631Z,85.42
2016-11-20T12:30:48.320Z,85.99
2016-11-20T12:31:57.380Z,87.21
2016-11-20T12:33:06.080Z,87.59
2016-11-20T12:34:15.378Z,87.12
2016-11-20T12:35:24.073Z,86.93
2016-11-20T12:36:32.798Z,86.65
2016-11-20T12:37:41.490Z,85.8
2016-11-20T12:38:50.182Z,85.99
2016-11-20T12:39:58.872Z,85.89
2016-11-20T12:41:07.560Z,86.74
2016-11-20T12:42:16.275Z,86.83
2016-11-20T12:43:24.969Z,86.93
2016-11-20T12:44:33.710Z,87.69
2016-11-20T12:45:42.410Z,87.59
2016-11-20T12:46:51.102Z,87.78
2016-11-20T12:47:59.795Z,87.78
2016-11-20T12:49:08.488Z,88.07
2016-11-20T12:50:17.496Z,88.59
2016-11-20T12:51:26.191Z,88.92
2016-11-20T12:52:34.880Z,89.06
2016-11-20T12:53:43.572Z,89.25
2016-11-20T12:54:52.271Z,89.54
2016-11-20T12:56:00.961Z,90.2
2016-11-20T12:57:09.660Z,90.01
2016-11-20T12:58:18.366Z,90.01
2016-11-20T12:59:27.055Z,89.63
2016-11-20T13:00:35.746Z,89.92
2016-11-20T13:01:44.447Z,90.11
2016-11-20T13:02:53.142Z,90.39
2016-11-20T13:04:01.845Z,90.01
2016-11-20T13:05:10.848Z,90.2
2016-11-20T13:06:19.538Z,90.77
2016-11-20T13:07:28.238Z,91.72
2016-11-20T13:08:36.935Z,92.19
2016-11-20T13:09:45.623Z,92.57
2016-11-20T13:10:54.320Z,93.51
2016-11-20T13:12:03.010Z,93.56
2016-11-20T13:13:11.701Z,94.6
2016-11-20T13:14:20.394Z,94.51
2016-11-20T13:15:29.108Z,95.07
2016-11-20T13:16:37.833Z,95.36
2016-11-20T13:17:46.524Z,95.93
2016-11-20T13:18:55.213Z,96.02
2016-11-20T13:20:03.908Z,96.21
2016-11-20T13:21:12.605Z,96.31
2016-11-20T13:22:21.297Z,96.88
2016-11-20T13:23:29.986Z,96.5
2016-11-20T13:24:38.681Z,96.88
2016-11-20T13:25:47.371Z,97.63
2016-11-20T13:26:56.079Z,97.72
2016-11-20T13:28:04.794Z,97.44
2016-11-20T13:29:13.485Z,97.72
2016-11-20T13:30:22.179Z,97.34
2016-11-20T13:31:30.867Z,97.34
2016-11-20T13:32:39.568Z,97.63
2016-11-20T13:33:48.266Z,97.53
2016-11-20T13:34:56.961Z,97.34
2016-11-20T13:36:05.674Z,97.44
2016-11-20T13:37:14.367Z,97.06
2016-11-20T13:38:23.060Z,96.97
2016-11-20T13:39:31.751Z,96.59
2016-11-20T13:40:40.443Z,97.16
2016-11-20T13:41:49.144Z,96.97
2016-11-20T13:42:57.835Z,97.06
2016-11-20T13:44:06.524Z,97.06
2016-11-20T13:45:15.217Z,96.97
2016-11-20T13:46:23.912Z,97.16
2016-11-20T13:47:32.603Z,97.34
2016-11-20T13:48:41.290Z,97.44
2016-11-20T13:49:49.981Z,98.2
2016-11-20T13:50:58.679Z,97.34
2016-11-20T13:52:07.372Z,97.72
2016-11-20T13:53:16.064Z,97.63
2016-11-20T13:54:25.086Z,97.34
2016-11-20T13:55:33.777Z,98.01
2016-11-20T13:56:42.465Z,97.91
2016-11-20T13:57:51.160Z,98.1
2016-11-20T13:58:59.858Z,98.01
2016-11-20T14:00:08.551Z,98.67
2016-11-20T14:01:17.240Z,98.58
2016-11-20T14:02:25.946Z,99.24
2016-11-20T14:03:34.640Z,99.24
2016-11-20T14:04:43.331Z,99.43
2016-11-20T14:05:52.026Z,99.43
2016-11-20T14:07:00.716Z,99.52
2016-11-20T14:08:09.405Z,99.15
2016-11-20T14:09:18.434Z,99.71
2016-11-20T14:10:27.124Z,99.52
2016-11-20T14:11:35.821Z,99.71
2016-11-20T14:12:44.509Z,99.43
2016-11-20T14:13:53.201Z,99.52
2016-11-20T14:15:01.892Z,99.52
2016-11-20T14:16:10.583Z,99.62
2016-11-20T14:17:19.280Z,99.43
2016-11-20T14:18:27.973Z,99.52
2016-11-20T14:19:36.667Z,99.99
2016-11-20T14:20:45.366Z,99.99
2016-11-20T14:21:54.061Z,99.33
2016-11-20T14:23:02.759Z,99.43
2016-11-20T14:24:11.477Z,98.39
2016-11-20T14:25:20.190Z,98.06
2016-11-20T14:26:28.884Z,98.77
2016-11-20T14:27:37.583Z,98.86
2016-11-20T14:28:46.272Z,99.9
2016-11-20T14:29:54.966Z,99.15
2016-11-20T14:31:03.657Z,99.99
2016-11-20T14:32:12.351Z,99.99
2016-11-20T14:33:21.048Z,99.99
2016-11-20T14:34:29.743Z,99.99
2016-11-20T14:35:38.432Z,99.99
2016-11-20T14:36:47.121Z,99.99
2016-11-20T14:37:55.814Z,99.99
2016-11-20T14:39:04.509Z,99.99
2016-11-20T14:40:13.206Z,99.99
2016-11-20T14:41:21.895Z,99.99
2016-11-20T14:42:30.596Z,99.99
2016-11-20T14:43:39.631Z,99.99
2016-11-20T14:44:48.330Z,99.99
2016-11-20T14:45:57.024Z,99.99
2016-11-20T14:47:05.714Z,99.99
2016-11-20T14:48:14.404Z,99.99